Time;durP1;ratioP1;P1;durP2;ratioP2;P2;SDS_P1;SDS_P2;PMS_P1;PMS_P2;Temp;Humidity;BMP_temperature;BMP_pressure;BME280_temperature;BME280_humidity;BME280_pressure;Samples;Min_cycle;Max_cycle;Signal;HPM_P1;HPM_P2
2022/09/12 00:01:20;;;;;;;;;;;13.50;99.90;;;;;;5045919;28;19921;-70
2022/09/12 00:03:47;;;;;;;;;;;13.40;99.90;;;;;;5045337;28;19984;-70
2022/09/12 00:06:16;;;;;;;;;;;13.40;99.90;;;;;;5045777;28;19927;-70
2022/09/12 00:08:44;;;;;;;;;;;13.40;99.90;;;;;;5045724;28;19921;-70
2022/09/12 00:11:11;;;;;;;;;;;13.40;99.90;;;;;;5045826;28;19940;-69
2022/09/12 00:13:39;;;;;;;;;;;13.30;99.90;;;;;;5043789;28;20201;-70
2022/09/12 00:16:06;;;;;;;;;;;13.30;99.90;;;;;;5045525;28;19952;-70
2022/09/12 00:18:32;;;;;;;;;;;13.20;99.90;;;;;;5045615;28;19921;-70
2022/09/12 00:21:02;;;;;;;;;;;13.20;99.90;;;;;;5045419;28;19975;-70
2022/09/12 00:23:29;;;;;;;;;;;13.20;99.90;;;;;;5044850;28;19928;-70
2022/09/12 00:25:57;;;;;;;;;;;13.20;99.90;;;;;;5045490;28;19968;-70
2022/09/12 00:28:24;;;;;;;;;;;13.10;99.90;;;;;;5045441;28;19927;-70
2022/09/12 00:30:50;;;;;;;;;;;13.10;99.90;;;;;;5045307;28;19949;-70
2022/09/12 00:33:17;;;;;;;;;;;13.10;99.90;;;;;;5044137;28;19927;-70
2022/09/12 00:35:45;;;;;;;;;;;13.10;99.90;;;;;;5045104;28;19921;-70
2022/09/12 00:38:11;;;;;;;;;;;13.00;99.90;;;;;;5045350;28;19921;-70
2022/09/12 00:40:38;;;;;;;;;;;13.00;99.90;;;;;;5045341;28;19921;-70
2022/09/12 00:43:06;;;;;;;;;;;13.00;99.90;;;;;;5044693;28;19992;-70
2022/09/12 00:45:33;;;;;;;;;;;13.00;99.90;;;;;;5044943;28;19921;-70
2022/09/12 00:48:02;;;;;;;;;;;13.00;99.90;;;;;;5045093;28;20245;-70
2022/09/12 00:50:29;;;;;;;;;;;12.90;99.90;;;;;;5044855;28;19921;-70
2022/09/12 00:52:57;;;;;;;;;;;12.90;99.90;;;;;;5044287;28;19929;-70
2022/09/12 00:55:26;;;;;;;;;;;12.90;99.90;;;;;;5045011;28;19936;-69
2022/09/12 00:57:54;;;;;;;;;;;12.80;99.90;;;;;;5044998;28;19959;-70
2022/09/12 01:00:24;;;;;;;;;;;12.80;99.90;;;;;;5044728;28;19921;-70
2022/09/12 01:02:52;;;;;;;;;;;12.80;99.90;;;;;;5044155;28;19997;-70
2022/09/12 01:05:19;;;;;;;;;;;12.80;99.90;;;;;;5044389;28;19935;-70
2022/09/12 01:07:47;;;;;;;;;;;12.70;99.90;;;;;;5044560;28;19928;-70
2022/09/12 01:10:14;;;;;;;;;;;12.70;99.90;;;;;;5044617;28;19963;-70
2022/09/12 01:12:42;;;;;;;;;;;12.60;99.90;;;;;;5043085;28;20157;-70
2022/09/12 01:15:09;;;;;;;;;;;12.60;99.90;;;;;;5044217;28;20105;-70
2022/09/12 01:17:42;;;;;;;;;;;12.60;99.90;;;;;;5044568;28;19927;-70
2022/09/12 01:20:26;;;;;;;;;;;12.50;99.90;;;;;;5044277;28;20204;-70
2022/09/12 01:23:08;;;;;;;;;;;12.50;99.90;;;;;;5043293;28;19929;-70
2022/09/12 01:25:38;;;;;;;;;;;12.50;99.90;;;;;;5021922;28;19920;-70
2022/09/12 01:28:23;;;;;;;;;;;12.40;99.90;;;;;;5043880;28;19921;-70
2022/09/12 01:30:55;;;;;;;;;;;12.30;99.90;;;;;;5044250;28;19943;-70
2022/09/12 01:33:34;;;;;;;;;;;12.30;99.90;;;;;;5043650;28;19921;-70
2022/09/12 01:36:15;;;;;;;;;;;12.30;99.90;;;;;;5044050;28;19921;-70
2022/09/12 01:38:46;;;;;;;;;;;12.20;99.90;;;;;;5044091;28;19921;-70
2022/09/12 01:41:15;;;;;;;;;;;12.20;99.90;;;;;;5044180;28;19982;-70
2022/09/12 01:43:46;;;;;;;;;;;12.20;99.90;;;;;;5043257;28;20116;-70
2022/09/12 01:46:16;;;;;;;;;;;12.20;99.90;;;;;;5043893;28;19929;-70
2022/09/12 01:48:46;;;;;;;;;;;12.20;99.90;;;;;;5044045;28;19928;-70
2022/09/12 01:51:16;;;;;;;;;;;12.20;99.90;;;;;;5041416;28;19935;-70
2022/09/12 01:53:45;;;;;;;;;;;12.20;99.90;;;;;;5043462;28;19927;-70
2022/09/12 01:56:15;;;;;;;;;;;12.20;99.90;;;;;;5043623;28;19927;-70
2022/09/12 01:58:43;;;;;;;;;;;12.20;99.90;;;;;;5043579;28;19921;-70
2022/09/12 02:01:14;;;;;;;;;;;12.20;99.90;;;;;;5043487;28;19984;-70
2022/09/12 02:03:44;;;;;;;;;;;12.10;99.90;;;;;;5042999;28;20164;-70
2022/09/12 02:06:15;;;;;;;;;;;12.10;99.90;;;;;;5043459;28;20200;-70
2022/09/12 02:08:43;;;;;;;;;;;12.10;99.90;;;;;;5043642;28;19989;-70
2022/09/12 02:11:11;;;;;;;;;;;12.00;99.90;;;;;;5043509;28;19921;-70
2022/09/12 02:13:41;;;;;;;;;;;12.00;99.90;;;;;;5041713;28;19984;-70
2022/09/12 02:16:09;;;;;;;;;;;12.00;99.90;;;;;;5043243;28;19944;-70
2022/09/12 02:18:38;;;;;;;;;;;12.00;99.90;;;;;;5043489;28;20208;-70
2022/09/12 02:21:07;;;;;;;;;;;11.90;99.90;;;;;;5043243;28;20227;-70
2022/09/12 02:23:34;;;;;;;;;;;11.90;99.90;;;;;;5042972;28;19921;-70
2022/09/12 02:26:03;;;;;;;;;;;11.90;99.90;;;;;;5043206;28;19921;-70
2022/09/12 02:28:32;;;;;;;;;;;11.90;99.90;;;;;;5040671;28;20242;-70
2022/09/12 02:31:01;;;;;;;;;;;11.90;99.90;;;;;;5043436;28;19967;-70
2022/09/12 02:33:29;;;;;;;;;;;11.80;99.90;;;;;;5042991;28;19928;-70
2022/09/12 02:35:58;;;;;;;;;;;11.80;99.90;;;;;;5043109;28;19928;-70
2022/09/12 02:38:28;;;;;;;;;;;11.70;99.90;;;;;;5043177;28;19925;-69
2022/09/12 02:40:55;;;;;;;;;;;11.70;99.90;;;;;;5043091;28;19921;-70
2022/09/12 02:43:21;;;;;;;;;;;11.70;99.90;;;;;;5042512;28;19991;-70
2022/09/12 02:45:48;;;;;;;;;;;11.60;99.90;;;;;;5043364;28;19961;-70
2022/09/12 02:48:16;;;;;;;;;;;11.60;99.90;;;;;;5043117;28;19921;-70
2022/09/12 02:50:43;;;;;;;;;;;11.60;99.90;;;;;;5040165;28;19921;-70
2022/09/12 02:53:10;;;;;;;;;;;11.60;99.90;;;;;;5042449;28;19997;-70
2022/09/12 02:55:39;;;;;;;;;;;11.60;99.90;;;;;;5044719;28;19925;-70
2022/09/12 02:58:07;;;;;;;;;;;11.60;99.90;;;;;;5046990;28;19928;-69
2022/09/12 03:00:35;;;;;;;;;;;11.50;99.90;;;;;;5046978;28;19927;-70
2022/09/12 03:03:09;;;;;;;;;;;11.50;99.90;;;;;;5046270;28;19927;-70
2022/09/12 03:05:38;;;;;;;;;;;11.50;99.90;;;;;;5046822;28;19927;-70
2022/09/12 03:08:14;;;;;;;;;;;11.40;99.90;;;;;;5046920;28;19928;-69
2022/09/12 03:10:51;;;;;;;;;;;11.40;99.90;;;;;;5047015;28;19921;-69
2022/09/12 03:13:21;;;;;;;;;;;11.40;99.90;;;;;;5045009;28;19928;-70
2022/09/12 03:15:51;;;;;;;;;;;11.40;99.90;;;;;;5046686;28;19967;-70
2022/09/12 03:18:22;;;;;;;;;;;11.40;99.90;;;;;;5046830;28;19921;-70
2022/09/12 03:20:52;;;;;;;;;;;11.40;99.90;;;;;;5046602;28;19921;-70
2022/09/12 03:23:23;;;;;;;;;;;11.30;99.90;;;;;;5046189;28;20146;-70
2022/09/12 03:25:53;;;;;;;;;;;11.30;99.90;;;;;;5046385;28;20209;-70
2022/09/12 03:28:21;;;;;;;;;;;11.30;99.90;;;;;;5044347;28;19921;-69
2022/09/12 03:30:50;;;;;;;;;;;11.30;99.90;;;;;;5046283;28;20269;-70
2022/09/12 03:33:18;;;;;;;;;;;11.30;99.90;;;;;;5045975;28;19920;-70
2022/09/12 03:35:45;;;;;;;;;;;11.30;99.90;;;;;;5046298;28;19921;-70
2022/09/12 03:38:11;;;;;;;;;;;11.30;99.90;;;;;;5046425;28;20011;-70
2022/09/12 03:40:38;;;;;;;;;;;11.30;99.90;;;;;;5046266;28;19984;-70
2022/09/12 03:43:07;;;;;;;;;;;11.30;99.90;;;;;;5045730;28;19935;-70
2022/09/12 03:45:34;;;;;;;;;;;11.20;99.90;;;;;;5045893;28;19924;-70
2022/09/12 03:48:00;;;;;;;;;;;11.30;99.90;;;;;;5046133;28;19993;-70
2022/09/12 03:50:27;;;;;;;;;;;11.20;99.90;;;;;;5044803;28;19980;-69
2022/09/12 03:52:53;;;;;;;;;;;11.20;99.90;;;;;;5044711;28;19921;-70
2022/09/12 03:55:20;;;;;;;;;;;11.20;99.90;;;;;;5045856;28;20141;-70
2022/09/12 03:57:47;;;;;;;;;;;11.20;99.90;;;;;;5045962;28;20163;-70
2022/09/12 04:00:15;;;;;;;;;;;11.20;99.90;;;;;;5045670;28;19984;-70
2022/09/12 04:02:42;;;;;;;;;;;11.20;99.90;;;;;;5045509;28;19943;-70
2022/09/12 04:05:08;;;;;;;;;;;11.20;99.90;;;;;;5045477;28;20260;-70
2022/09/12 04:07:35;;;;;;;;;;;11.20;99.90;;;;;;5044484;28;19921;-70
2022/09/12 04:10:02;;;;;;;;;;;11.20;99.90;;;;;;5045619;28;20000;-70
2022/09/12 04:12:29;;;;;;;;;;;11.20;99.90;;;;;;5044491;28;19937;-70
2022/09/12 04:14:56;;;;;;;;;;;11.20;99.90;;;;;;5045039;28;20208;-70
2022/09/12 04:17:26;;;;;;;;;;;11.10;99.90;;;;;;5045134;28;20124;-70
2022/09/12 04:19:52;;;;;;;;;;;11.10;99.90;;;;;;5059200;22;19950;-88
2022/09/12 04:22:21;;;;;;;;;;;11.10;99.90;;;;;;5043546;28;19917;-92
2022/09/12 04:25:19;;;;;;;;;;;11.10;99.90;;;;;;5039864;28;19933;-93
2022/09/12 04:30:34;;;;;;;;;;;11.20;99.90;;;;;;5037248;28;19925;-90
2022/09/12 04:33:12;;;;;;;;;;;11.20;99.90;;;;;;5039623;28;19941;-90
2022/09/12 04:38:29;;;;;;;;;;;11.20;99.90;;;;;;5034503;28;19933;-91
2022/09/12 04:40:59;;;;;;;;;;;11.00;99.90;;;;;;5038186;28;19917;-92
2022/09/12 04:43:26;;;;;;;;;;;11.00;99.90;;;;;;5033206;28;19984;-90
2022/09/12 04:45:53;;;;;;;;;;;11.10;99.90;;;;;;5028941;28;19913;-94
2022/09/12 04:48:21;;;;;;;;;;;10.80;99.90;;;;;;5026906;28;19941;-92
2022/09/12 04:50:49;;;;;;;;;;;11.30;99.90;;;;;;5026707;28;19921;-89
2022/09/12 04:53:16;;;;;;;;;;;11.10;99.90;;;;;;5026748;28;19929;-89
2022/09/12 04:55:42;;;;;;;;;;;11.00;99.90;;;;;;5025910;28;19945;-89
2022/09/12 04:58:09;;;;;;;;;;;11.00;99.90;;;;;;5027170;28;19922;-90
2022/09/12 05:00:36;;;;;;;;;;;11.00;99.90;;;;;;5025031;28;19945;-90
2022/09/12 05:03:03;;;;;;;;;;;11.00;99.90;;;;;;5019435;28;19921;-89
2022/09/12 05:05:31;;;;;;;;;;;11.00;99.90;;;;;;5025567;28;19921;-90
2022/09/12 05:07:58;;;;;;;;;;;11.00;99.90;;;;;;5026717;28;19930;-90
2022/09/12 05:10:25;;;;;;;;;;;11.00;99.90;;;;;;5025570;28;20221;-89
2022/09/12 05:12:52;;;;;;;;;;;11.00;99.90;;;;;;5021685;28;19953;-89
2022/09/12 05:15:19;;;;;;;;;;;11.00;99.90;;;;;;5024107;28;19921;-89
2022/09/12 05:17:46;;;;;;;;;;;10.90;99.90;;;;;;5024841;28;19928;-89
2022/09/12 05:20:12;;;;;;;;;;;10.90;99.90;;;;;;5025871;28;19989;-91
2022/09/12 05:22:41;;;;;;;;;;;10.90;99.90;;;;;;5024569;28;19968;-90
2022/09/12 05:25:08;;;;;;;;;;;10.80;99.90;;;;;;5023484;28;19921;-90
2022/09/12 05:27:35;;;;;;;;;;;10.80;99.90;;;;;;5024672;28;20105;-90
2022/09/12 05:30:02;;;;;;;;;;;10.70;99.90;;;;;;5022267;28;19929;-91
2022/09/12 05:32:31;;;;;;;;;;;10.70;99.90;;;;;;5024267;28;19985;-90
2022/09/12 05:34:57;;;;;;;;;;;10.70;99.90;;;;;;5024386;28;19959;-90
2022/09/12 05:37:24;;;;;;;;;;;10.70;99.90;;;;;;5024517;28;20221;-90
2022/09/12 05:39:52;;;;;;;;;;;10.70;99.90;;;;;;5026318;28;20121;-90
2022/09/12 05:42:19;;;;;;;;;;;10.70;99.90;;;;;;5025677;28;19984;-91
2022/09/12 05:44:46;;;;;;;;;;;10.70;99.90;;;;;;5024579;28;19921;-91
2022/09/12 05:47:12;;;;;;;;;;;10.70;99.90;;;;;;5025375;28;19928;-91
2022/09/12 05:49:39;;;;;;;;;;;10.70;99.90;;;;;;5024752;28;19922;-91
2022/09/12 05:52:06;;;;;;;;;;;10.80;99.90;;;;;;5025518;28;19921;-91
2022/09/12 05:54:33;;;;;;;;;;;10.70;99.90;;;;;;5024810;28;19928;-91
2022/09/12 05:57:01;;;;;;;;;;;10.70;99.90;;;;;;5025887;28;19925;-91
2022/09/12 05:59:28;;;;;;;;;;;10.70;99.90;;;;;;5025664;28;19948;-90
2022/09/12 06:01:55;;;;;;;;;;;10.80;99.90;;;;;;5025329;28;19949;-91
2022/09/12 06:04:22;;;;;;;;;;;10.80;99.90;;;;;;5025113;28;20121;-92
2022/09/12 06:06:49;;;;;;;;;;;10.90;99.90;;;;;;5024787;28;19929;-90
2022/09/12 06:09:16;;;;;;;;;;;10.90;99.90;;;;;;5025332;28;20117;-91
2022/09/12 06:11:43;;;;;;;;;;;10.90;99.90;;;;;;5025508;28;20011;-91
2022/09/12 06:14:13;;;;;;;;;;;11.00;99.90;;;;;;5023936;28;19955;-90
2022/09/12 06:16:40;;;;;;;;;;;11.00;99.90;;;;;;5026766;28;19948;-91
2022/09/12 06:19:07;;;;;;;;;;;11.00;99.90;;;;;;5034572;28;19952;-93
2022/09/12 06:21:36;;;;;;;;;;;11.00;99.90;;;;;;5037344;28;19909;-91
2022/09/12 06:24:03;;;;;;;;;;;11.10;99.90;;;;;;5042569;28;19913;-92
2022/09/12 06:26:30;;;;;;;;;;;11.20;99.90;;;;;;5045101;28;19979;-92
2022/09/12 06:28:57;;;;;;;;;;;11.20;99.90;;;;;;5048032;28;19913;-91
2022/09/12 06:31:27;;;;;;;;;;;11.30;99.90;;;;;;5056626;28;20066;-90
2022/09/12 06:33:55;;;;;;;;;;;11.30;99.90;;;;;;5055080;28;19924;-91
2022/09/12 06:36:24;;;;;;;;;;;11.30;99.90;;;;;;5055950;28;20216;-91
2022/09/12 06:38:53;;;;;;;;;;;11.40;99.90;;;;;;5052552;28;20128;-92
2022/09/12 06:41:20;;;;;;;;;;;11.50;99.90;;;;;;5054909;28;19917;-91
2022/09/12 06:43:47;;;;;;;;;;;11.60;99.90;;;;;;5054597;28;19921;-92
2022/09/12 06:46:14;;;;;;;;;;;11.60;99.90;;;;;;5054821;28;19921;-91
2022/09/12 06:48:42;;;;;;;;;;;11.60;99.90;;;;;;5054850;28;19933;-91
2022/09/12 06:51:12;;;;;;;;;;;11.70;99.90;;;;;;5054837;28;19984;-91
2022/09/12 06:53:39;;;;;;;;;;;11.70;99.90;;;;;;5055256;28;19921;-91
2022/09/12 06:56:06;;;;;;;;;;;11.90;99.90;;;;;;5055644;28;19921;-92
2022/09/12 06:58:34;;;;;;;;;;;11.90;99.90;;;;;;5053368;28;19917;-91
2022/09/12 07:01:02;;;;;;;;;;;12.00;99.90;;;;;;5054327;28;19925;-91
2022/09/12 07:03:28;;;;;;;;;;;12.10;99.90;;;;;;5053668;28;19921;-91
2022/09/12 07:05:57;;;;;;;;;;;12.10;99.90;;;;;;5054625;28;19926;-91
2022/09/12 07:08:24;;;;;;;;;;;12.20;99.90;;;;;;5051986;28;19931;-90
2022/09/12 07:10:51;;;;;;;;;;;12.30;99.90;;;;;;5055624;28;19909;-92
2022/09/12 07:13:18;;;;;;;;;;;12.40;99.90;;;;;;5056074;28;19909;-91
2022/09/12 07:15:45;;;;;;;;;;;12.40;99.90;;;;;;5055632;28;19928;-92
2022/09/12 07:18:12;;;;;;;;;;;12.60;99.90;;;;;;5053718;28;19921;-91
2022/09/12 07:20:39;;;;;;;;;;;12.70;99.90;;;;;;5055114;28;19909;-90
2022/09/12 07:23:07;;;;;;;;;;;12.80;99.90;;;;;;5052918;28;19922;-91
2022/09/12 07:25:34;;;;;;;;;;;12.80;99.90;;;;;;5053930;28;19941;-91
2022/09/12 07:28:01;;;;;;;;;;;12.90;99.90;;;;;;5053022;28;19921;-90
2022/09/12 07:30:28;;;;;;;;;;;13.00;99.90;;;;;;5052795;28;19928;-90
2022/09/12 07:32:54;;;;;;;;;;;13.10;99.90;;;;;;5054415;28;19924;-90
2022/09/12 07:35:21;;;;;;;;;;;13.30;99.90;;;;;;5050362;28;19921;-91
2022/09/12 07:37:48;;;;;;;;;;;13.40;99.90;;;;;;5053264;28;19950;-91
2022/09/12 07:40:16;;;;;;;;;;;13.50;99.90;;;;;;5052318;28;19913;-91
2022/09/12 07:42:43;;;;;;;;;;;13.70;99.90;;;;;;5056830;28;19921;-91
2022/09/12 07:45:11;;;;;;;;;;;13.80;99.90;;;;;;5057302;28;19921;-91
2022/09/12 07:47:39;;;;;;;;;;;13.80;99.90;;;;;;5057201;28;19967;-91
2022/09/12 07:50:07;;;;;;;;;;;14.00;99.90;;;;;;5054470;28;19987;-91
2022/09/12 07:52:33;;;;;;;;;;;14.10;99.90;;;;;;5057175;28;19932;-92
2022/09/12 07:55:01;;;;;;;;;;;14.20;99.90;;;;;;5056584;28;20235;-91
2022/09/12 07:57:29;;;;;;;;;;;14.30;99.90;;;;;;5057483;28;19956;-91
2022/09/12 07:59:56;;;;;;;;;;;14.50;99.90;;;;;;5057722;28;20232;-91
2022/09/12 08:02:22;;;;;;;;;;;14.60;99.90;;;;;;5057045;28;19948;-91
2022/09/12 08:04:50;;;;;;;;;;;14.70;99.90;;;;;;5056181;28;20204;-93
2022/09/12 08:07:18;;;;;;;;;;;14.70;99.90;;;;;;5056491;28;19921;-92
2022/09/12 08:09:45;;;;;;;;;;;15.00;99.90;;;;;;5056659;28;19921;-92
2022/09/12 08:12:11;;;;;;;;;;;15.00;99.90;;;;;;5067887;28;19951;-92
2022/09/12 08:14:39;;;;;;;;;;;15.20;99.90;;;;;;5076036;28;19929;-91
2022/09/12 08:17:06;;;;;;;;;;;15.20;99.90;;;;;;5077010;28;19920;-91
2022/09/12 08:19:33;;;;;;;;;;;15.40;99.90;;;;;;5077534;28;19921;-91
2022/09/12 08:22:00;;;;;;;;;;;15.50;99.90;;;;;;5075686;28;19956;-92
2022/09/12 08:24:26;;;;;;;;;;;15.60;99.90;;;;;;5074231;28;19980;-92
2022/09/12 08:26:53;;;;;;;;;;;15.70;99.90;;;;;;5073500;28;19940;-93
2022/09/12 08:29:20;;;;;;;;;;;15.80;99.90;;;;;;5075116;28;19951;-93
2022/09/12 08:31:48;;;;;;;;;;;15.90;99.90;;;;;;5056120;28;19933;-92
2022/09/12 08:34:15;;;;;;;;;;;16.00;99.90;;;;;;5056657;28;19936;-92
2022/09/12 08:36:42;;;;;;;;;;;16.10;99.90;;;;;;5056373;28;19921;-92
2022/09/12 08:39:12;;;;;;;;;;;16.20;99.90;;;;;;5055674;28;19921;-92
2022/09/12 08:41:40;;;;;;;;;;;16.30;99.90;;;;;;5055672;28;19944;-92
2022/09/12 08:44:15;;;;;;;;;;;16.50;99.90;;;;;;5056643;28;19921;-92
2022/09/12 08:46:47;;;;;;;;;;;16.50;99.90;;;;;;5056295;28;19921;-92
2022/09/12 08:49:22;;;;;;;;;;;16.60;99.90;;;;;;5053649;28;19929;-93
2022/09/12 08:51:49;;;;;;;;;;;16.70;99.90;;;;;;5053178;28;19945;-93
2022/09/12 08:54:21;;;;;;;;;;;16.80;99.90;;;;;;5048723;28;19928;-92
2022/09/12 08:56:48;;;;;;;;;;;16.80;99.90;;;;;;5042556;28;19993;-93
2022/09/12 08:59:15;;;;;;;;;;;17.00;99.90;;;;;;5035265;28;19928;-92
2022/09/12 09:01:43;;;;;;;;;;;17.00;99.90;;;;;;5034060;28;19948;-92
2022/09/12 09:04:26;;;;;;;;;;;17.10;99.90;;;;;;5034671;28;20227;-93
2022/09/12 09:07:02;;;;;;;;;;;17.10;99.90;;;;;;5035678;28;19921;-92
2022/09/12 09:09:35;;;;;;;;;;;17.10;99.90;;;;;;5030981;28;20259;-90
2022/09/12 09:12:06;;;;;;;;;;;17.10;99.90;;;;;;5032023;28;19922;-90
2022/09/12 09:15:04;;;;;;;;;;;17.10;99.90;;;;;;5030288;28;19922;-90
2022/09/12 09:17:34;;;;;;;;;;;17.10;99.90;;;;;;4970186;28;19929;-91
2022/09/12 09:20:05;;;;;;;;;;;17.10;99.90;;;;;;5018636;28;19921;-91
2022/09/12 09:22:37;;;;;;;;;;;17.10;99.90;;;;;;5031750;28;19928;-92
2022/09/12 09:25:06;;;;;;;;;;;17.10;99.90;;;;;;5031884;28;20255;-92
2022/09/12 09:27:38;;;;;;;;;;;17.10;99.90;;;;;;5029672;28;19974;-92
2022/09/12 09:30:06;;;;;;;;;;;17.20;99.90;;;;;;5031376;28;20000;-91
2022/09/12 09:32:35;;;;;;;;;;;17.30;99.90;;;;;;5034423;28;19922;-92
2022/09/12 09:35:12;;;;;;;;;;;17.40;99.90;;;;;;5038110;28;19913;-91
2022/09/12 09:37:41;;;;;;;;;;;17.60;99.90;;;;;;5037802;28;19913;-92
2022/09/12 09:40:15;;;;;;;;;;;17.80;99.90;;;;;;5037730;28;19913;-93
2022/09/12 09:42:45;;;;;;;;;;;17.90;99.90;;;;;;5037480;28;20019;-90
2022/09/12 09:45:14;;;;;;;;;;;18.10;99.90;;;;;;5028505;28;19921;-89
2022/09/12 09:47:41;;;;;;;;;;;18.20;99.90;;;;;;5026025;28;19921;-90
2022/09/12 09:50:15;;;;;;;;;;;18.30;99.90;;;;;;5024281;28;19922;-89
2022/09/12 09:52:42;;;;;;;;;;;18.40;99.90;;;;;;5024361;28;19922;-91
2022/09/12 09:55:12;;;;;;;;;;;18.50;99.90;;;;;;5025064;28;19945;-92
2022/09/12 09:57:39;;;;;;;;;;;18.50;99.90;;;;;;5024189;28;19928;-90
2022/09/12 10:00:26;;;;;;;;;;;18.50;99.90;;;;;;5024436;28;19928;-90
2022/09/12 10:03:13;;;;;;;;;;;18.60;99.90;;;;;;5024355;28;19930;-92
2022/09/12 10:05:46;;;;;;;;;;;18.70;99.90;;;;;;5021151;28;19921;-90
2022/09/12 10:08:20;;;;;;;;;;;18.90;99.90;;;;;;5025788;28;20272;-89
2022/09/12 10:10:52;;;;;;;;;;;19.10;99.90;;;;;;5025238;28;19948;-90
2022/09/12 10:13:23;;;;;;;;;;;19.20;99.90;;;;;;5020764;28;19945;-90
2022/09/12 10:15:56;;;;;;;;;;;19.30;99.90;;;;;;5024171;28;19942;-90
2022/09/12 10:18:33;;;;;;;;;;;19.50;99.90;;;;;;5024572;28;20228;-90
2022/09/12 10:21:02;;;;;;;;;;;19.60;99.90;;;;;;5027940;28;19941;-89
2022/09/12 10:23:33;;;;;;;;;;;19.50;99.90;;;;;;5047494;28;19972;-90
2022/09/12 10:26:03;;;;;;;;;;;19.70;99.90;;;;;;5029582;28;19930;-91
2022/09/12 10:28:32;;;;;;;;;;;19.80;99.90;;;;;;5044318;28;19989;-91
2022/09/12 10:31:01;;;;;;;;;;;19.90;99.90;;;;;;5046457;28;19921;-90
2022/09/12 10:33:29;;;;;;;;;;;19.90;99.90;;;;;;5046260;28;19929;-90
2022/09/12 10:35:56;;;;;;;;;;;19.90;99.90;;;;;;5047047;28;19981;-89
2022/09/12 10:38:25;;;;;;;;;;;19.80;99.90;;;;;;5050170;28;20027;-91
2022/09/12 10:40:56;;;;;;;;;;;19.90;99.90;;;;;;5033826;28;20051;-91
2022/09/12 10:43:27;;;;;;;;;;;20.00;99.90;;;;;;5036629;28;19969;-90
2022/09/12 10:45:57;;;;;;;;;;;20.10;99.90;;;;;;5037663;28;19914;-91
2022/09/12 10:48:30;;;;;;;;;;;20.00;99.90;;;;;;5038012;28;19916;-91
2022/09/12 10:50:57;;;;;;;;;;;20.00;99.90;;;;;;5036355;28;19921;-90
2022/09/12 10:53:26;;;;;;;;;;;19.90;99.90;;;;;;5036078;28;19913;-90
2022/09/12 10:56:05;;;;;;;;;;;19.90;99.90;;;;;;5040072;28;19913;-91
2022/09/12 10:58:47;;;;;;;;;;;19.90;99.90;;;;;;5055982;28;19913;-88
2022/09/12 11:01:18;;;;;;;;;;;19.80;99.90;;;;;;5054924;28;19917;-91
2022/09/12 11:03:53;;;;;;;;;;;19.90;99.90;;;;;;5054132;28;19944;-90
2022/09/12 11:06:23;;;;;;;;;;;20.10;99.90;;;;;;5056837;28;19909;-89
2022/09/12 11:09:00;;;;;;;;;;;20.20;99.90;;;;;;5057512;28;19921;-91
2022/09/12 11:11:34;;;;;;;;;;;20.10;99.90;;;;;;5046298;28;19959;-89
2022/09/12 11:14:07;;;;;;;;;;;20.10;99.90;;;;;;5040665;28;19945;-88
2022/09/12 11:16:39;;;;;;;;;;;20.00;99.90;;;;;;5044545;28;20228;-89
2022/09/12 11:19:22;;;;;;;;;;;20.10;99.90;;;;;;5044035;28;19921;-88
2022/09/12 11:21:57;;;;;;;;;;;20.20;99.90;;;;;;5033708;28;20019;-89
2022/09/12 11:24:31;;;;;;;;;;;20.40;99.90;;;;;;5045713;28;20140;-89
2022/09/12 11:27:03;;;;;;;;;;;20.50;99.90;;;;;;5046795;28;19960;-88
2022/09/12 11:29:36;;;;;;;;;;;20.70;99.90;;;;;;5046249;28;19928;-89
2022/09/12 11:32:11;;;;;;;;;;;20.90;99.90;;;;;;5026136;28;19922;-88
2022/09/12 11:34:43;;;;;;;;;;;21.20;99.90;;;;;;5025792;28;20005;-89
2022/09/12 11:37:17;;;;;;;;;;;21.50;99.90;;;;;;5026671;28;19929;-88
2022/09/12 11:39:47;;;;;;;;;;;21.70;99.90;;;;;;5026853;28;19922;-89
2022/09/12 11:42:18;;;;;;;;;;;21.90;99.90;;;;;;5025385;28;20131;-88
2022/09/12 11:44:46;;;;;;;;;;;22.00;99.90;;;;;;5025772;28;19930;-90
2022/09/12 11:47:13;;;;;;;;;;;22.00;99.90;;;;;;5028342;28;20202;-89
2022/09/12 11:49:43;;;;;;;;;;;22.10;99.90;;;;;;5026721;28;19988;-89
2022/09/12 11:52:13;;;;;;;;;;;22.10;99.90;;;;;;5027899;28;19945;-88
2022/09/12 11:54:43;;;;;;;;;;;22.20;99.90;;;;;;5026180;28;19945;-88
2022/09/12 11:57:15;;;;;;;;;;;22.20;99.90;;;;;;5026281;28;20267;-89
2022/09/12 11:59:44;;;;;;;;;;;22.20;99.90;;;;;;5065825;28;19959;-88
2022/09/12 12:02:13;;;;;;;;;;;22.20;99.90;;;;;;5065978;28;19927;-88
2022/09/12 12:04:43;;;;;;;;;;;22.30;99.90;;;;;;5065461;28;19928;-88
2022/09/12 12:07:11;;;;;;;;;;;22.30;99.90;;;;;;5066766;28;19980;-88
2022/09/12 12:09:44;;;;;;;;;;;22.40;99.90;;;;;;5063913;28;20343;-87
2022/09/12 12:12:14;;;;;;;;;;;22.60;99.90;;;;;;5066330;28;19991;-88
2022/09/12 12:14:44;;;;;;;;;;;22.80;99.90;;;;;;5064970;28;19921;-88
2022/09/12 12:17:15;;;;;;;;;;;23.00;99.90;;;;;;5066428;28;19967;-87
2022/09/12 12:19:42;;;;;;;;;;;23.10;99.90;;;;;;5065584;28;20107;-88
2022/09/12 12:22:16;;;;;;;;;;;23.20;99.90;;;;;;5066336;28;19944;-87
2022/09/12 12:25:02;;;;;;;;;;;23.20;99.90;;;;;;5065526;28;19921;-87
2022/09/12 12:27:43;;;;;;;;;;;23.20;99.90;;;;;;5065446;28;19984;-88
2022/09/12 12:30:25;;;;;;;;;;;23.20;99.90;;;;;;5060974;28;19947;-89
2022/09/12 12:32:59;;;;;;;;;;;23.20;99.90;;;;;;5044426;28;19930;-90
2022/09/12 12:35:39;;;;;;;;;;;23.20;99.90;;;;;;5045367;28;19984;-90
2022/09/12 12:38:25;;;;;;;;;;;23.10;99.90;;;;;;5051545;28;19984;-88
2022/09/12 12:40:52;;;;;;;;;;;23.10;99.90;;;;;;5059137;28;19959;-91
2022/09/12 12:43:30;;;;;;;;;;;23.10;99.90;;;;;;5066196;28;19928;-89
2022/09/12 12:46:12;;;;;;;;;;;23.10;99.90;;;;;;5065279;28;19927;-89
2022/09/12 12:48:48;;;;;;;;;;;23.10;99.90;;;;;;5067415;28;19928;-91
2022/09/12 12:51:33;;;;;;;;;;;23.10;99.90;;;;;;5065211;28;20223;-88
2022/09/12 12:54:00;;;;;;;;;;;23.10;99.90;;;;;;5059415;28;19968;-88
2022/09/12 12:56:39;;;;;;;;;;;23.20;99.90;;;;;;5045970;28;19955;-93
2022/09/12 12:59:13;;;;;;;;;;;23.20;99.90;;;;;;5026988;28;20250;-87
2022/09/12 13:01:44;;;;;;;;;;;23.10;99.90;;;;;;5025586;28;19921;-89
2022/09/12 13:04:14;;;;;;;;;;;23.00;99.90;;;;;;5025415;28;19957;-88
2022/09/12 13:06:42;;;;;;;;;;;22.90;99.90;;;;;;5025405;28;19941;-88
2022/09/12 13:09:19;;;;;;;;;;;22.90;99.90;;;;;;5024760;28;19927;-88
2022/09/12 13:11:45;;;;;;;;;;;22.90;99.90;;;;;;5033646;28;19921;-88
2022/09/12 13:14:27;;;;;;;;;;;22.90;99.90;;;;;;5043730;28;20120;-88
2022/09/12 13:16:55;;;;;;;;;;;23.00;99.90;;;;;;5044015;28;19921;-89
2022/09/12 13:19:27;;;;;;;;;;;23.00;99.90;;;;;;5044597;28;20077;-88
2022/09/12 13:21:55;;;;;;;;;;;23.10;99.90;;;;;;5045466;28;19936;-89
2022/09/12 13:24:22;;;;;;;;;;;23.10;99.90;;;;;;5043604;28;20187;-88
2022/09/12 13:26:49;;;;;;;;;;;23.10;99.90;;;;;;5045931;28;20232;-91
2022/09/12 13:29:18;;;;;;;;;;;22.90;99.90;;;;;;5051585;28;19960;-91
2022/09/12 13:31:49;;;;;;;;;;;22.90;99.90;;;;;;5036631;28;20228;-89
2022/09/12 13:34:18;;;;;;;;;;;23.10;99.90;;;;;;5038464;28;19921;-90
2022/09/12 13:36:52;;;;;;;;;;;23.30;99.90;;;;;;5045333;28;19921;-90
2022/09/12 13:39:23;;;;;;;;;;;23.50;99.90;;;;;;5045284;28;19921;-90
2022/09/12 13:42:25;;;;;;;;;;;23.50;99.90;;;;;;5045610;28;20263;-90
2022/09/12 13:44:55;;;;;;;;;;;23.50;99.90;;;;;;5044388;28;19921;-91
2022/09/12 13:47:26;;;;;;;;;;;23.40;99.90;;;;;;5042568;28;20244;-90
2022/09/12 13:49:53;;;;;;;;;;;23.50;99.90;;;;;;5044034;28;19925;-90
2022/09/12 13:52:22;;;;;;;;;;;23.60;99.90;;;;;;5044288;28;19941;-90
2022/09/12 13:54:51;;;;;;;;;;;23.80;99.90;;;;;;5043095;28;19984;-90
2022/09/12 13:57:27;;;;;;;;;;;24.00;99.90;;;;;;5029495;28;19921;-90
2022/09/12 13:59:56;;;;;;;;;;;24.10;99.90;;;;;;5043470;28;19960;-89
2022/09/12 14:02:24;;;;;;;;;;;24.30;99.90;;;;;;5043712;28;20184;-90
2022/09/12 14:05:08;;;;;;;;;;;24.40;99.90;;;;;;5043145;28;19921;-89
2022/09/12 14:07:39;;;;;;;;;;;24.50;99.90;;;;;;5043933;28;19951;-89
2022/09/12 14:10:06;;;;;;;;;;;24.40;99.90;;;;;;5039251;28;19930;-90
2022/09/12 14:12:36;;;;;;;;;;;24.50;99.90;;;;;;5025267;28;20124;-90
2022/09/12 14:15:03;;;;;;;;;;;24.60;99.90;;;;;;5023981;28;19945;-90
2022/09/12 14:17:33;;;;;;;;;;;24.70;99.90;;;;;;5024378;28;19983;-90
2022/09/12 14:20:00;;;;;;;;;;;24.90;99.90;;;;;;5022676;28;19945;-90
2022/09/12 14:22:39;;;;;;;;;;;25.10;99.90;;;;;;5027274;28;20093;-90
2022/09/12 14:25:09;;;;;;;;;;;25.20;99.90;;;;;;5025172;28;19928;-90
2022/09/12 14:27:38;;;;;;;;;;;25.30;99.90;;;;;;5044216;28;19948;-89
2022/09/12 14:30:07;;;;;;;;;;;25.50;99.90;;;;;;5044063;28;19952;-88
2022/09/12 14:32:34;;;;;;;;;;;25.50;99.90;;;;;;5045389;28;19925;-88
2022/09/12 14:35:05;;;;;;;;;;;25.60;99.90;;;;;;5044859;28;19921;-88
2022/09/12 14:37:32;;;;;;;;;;;25.60;99.90;;;;;;5044379;28;19928;-88